sensor_id;sensor_type;location;lat;lon;timestamp;pressure;altitude;pressure_sealevel;temperature;humidity
47897;BME280;39629;51.400;5.494;2023-10-19T00:01:35;99015.50;;;11.10;100.00
47897;BME280;39629;51.400;5.494;2023-10-19T00:06:38;99031.25;;;11.11;100.00
47897;BME280;39629;51.400;5.494;2023-10-19T00:11:41;99036.22;;;11.20;100.00
47897;BME280;39629;51.400;5.494;2023-10-19T00:16:46;99046.63;;;11.23;100.00
47897;BME280;39629;51.400;5.494;2023-10-19T00:21:54;99051.41;;;11.37;100.00
47897;BME280;39629;51.400;5.494;2023-10-19T00:27:02;99032.44;;;11.53;100.00
47897;BME280;39629;51.400;5.494;2023-10-19T00:32:19;99025.13;;;11.61;100.00
47897;BME280;39629;51.400;5.494;2023-10-19T00:37:25;99025.63;;;11.71;100.00
47897;BME280;39629;51.400;5.494;2023-10-19T00:42:28;99025.41;;;11.77;100.00
47897;BME280;39629;51.400;5.494;2023-10-19T00:47:33;99031.31;;;11.84;100.00
47897;BME280;39629;51.400;5.494;2023-10-19T00:52:42;99023.91;;;11.93;100.00
47897;BME280;39629;51.400;5.494;2023-10-19T00:57:50;99012.34;;;11.98;100.00
47897;BME280;39629;51.400;5.494;2023-10-19T01:02:57;99008.72;;;12.00;100.00
47897;BME280;39629;51.400;5.494;2023-10-19T01:08:01;99010.13;;;12.09;100.00
47897;BME280;39629;51.400;5.494;2023-10-19T01:13:15;99016.16;;;12.13;100.00
47897;BME280;39629;51.400;5.494;2023-10-19T01:18:19;99017.00;;;12.13;100.00
47897;BME280;39629;51.400;5.494;2023-10-19T01:23:25;99022.00;;;12.21;100.00
47897;BME280;39629;51.400;5.494;2023-10-19T01:28:32;99015.75;;;12.23;100.00
47897;BME280;39629;51.400;5.494;2023-10-19T01:33:44;99011.88;;;12.32;100.00
47897;BME280;39629;51.400;5.494;2023-10-19T01:38:49;99007.25;;;12.39;100.00
47897;BME280;39629;51.400;5.494;2023-10-19T01:43:54;99007.16;;;12.40;100.00
47897;BME280;39629;51.400;5.494;2023-10-19T01:49:05;99006.78;;;12.51;100.00
47897;BME280;39629;51.400;5.494;2023-10-19T01:54:10;99006.72;;;12.53;100.00
47897;BME280;39629;51.400;5.494;2023-10-19T01:59:15;99004.94;;;12.53;100.00
47897;BME280;39629;51.400;5.494;2023-10-19T02:04:18;99011.69;;;12.60;100.00
47897;BME280;39629;51.400;5.494;2023-10-19T02:09:24;99006.28;;;12.64;100.00
47897;BME280;39629;51.400;5.494;2023-10-19T02:14:30;98998.47;;;12.83;100.00
47897;BME280;39629;51.400;5.494;2023-10-19T02:19:34;98997.81;;;12.77;100.00
47897;BME280;39629;51.400;5.494;2023-10-19T02:24:38;99001.34;;;12.76;100.00
47897;BME280;39629;51.400;5.494;2023-10-19T02:29:40;99000.56;;;12.74;100.00
47897;BME280;39629;51.400;5.494;2023-10-19T02:34:43;99002.38;;;12.94;100.00
47897;BME280;39629;51.400;5.494;2023-10-19T02:39:47;98990.38;;;13.08;100.00
47897;BME280;39629;51.400;5.494;2023-10-19T02:44:51;98987.44;;;13.14;100.00
47897;BME280;39629;51.400;5.494;2023-10-19T02:49:54;98984.81;;;13.14;100.00
47897;BME280;39629;51.400;5.494;2023-10-19T02:54:58;98984.50;;;13.22;100.00
47897;BME280;39629;51.400;5.494;2023-10-19T03:00:04;98980.91;;;13.23;100.00
47897;BME280;39629;51.400;5.494;2023-10-19T03:05:09;98983.28;;;13.29;100.00
47897;BME280;39629;51.400;5.494;2023-10-19T03:10:17;98978.75;;;13.33;100.00
47897;BME280;39629;51.400;5.494;2023-10-19T03:15:25;98967.69;;;13.23;100.00
47897;BME280;39629;51.400;5.494;2023-10-19T03:20:30;98961.50;;;13.24;100.00
47897;BME280;39629;51.400;5.494;2023-10-19T03:25:35;98957.72;;;13.29;100.00
47897;BME280;39629;51.400;5.494;2023-10-19T03:30:56;98952.50;;;13.28;100.00
47897;BME280;39629;51.400;5.494;2023-10-19T03:36:03;98954.16;;;13.31;100.00
47897;BME280;39629;51.400;5.494;2023-10-19T03:41:08;98949.69;;;13.33;100.00
47897;BME280;39629;51.400;5.494;2023-10-19T03:46:11;98945.19;;;13.35;100.00
47897;BME280;39629;51.400;5.494;2023-10-19T03:51:23;98941.81;;;13.31;100.00
47897;BME280;39629;51.400;5.494;2023-10-19T03:56:28;98946.16;;;13.32;100.00
47897;BME280;39629;51.400;5.494;2023-10-19T04:01:33;98939.38;;;13.26;100.00
47897;BME280;39629;51.400;5.494;2023-10-19T04:06:36;98934.91;;;13.28;100.00
47897;BME280;39629;51.400;5.494;2023-10-19T04:11:40;98936.88;;;13.23;100.00
47897;BME280;39629;51.400;5.494;2023-10-19T04:16:49;98946.25;;;13.10;100.00
47897;BME280;39629;51.400;5.494;2023-10-19T04:21:52;98943.09;;;13.02;100.00
47897;BME280;39629;51.400;5.494;2023-10-19T04:26:55;98940.00;;;12.92;100.00
47897;BME280;39629;51.400;5.494;2023-10-19T04:32:02;98935.97;;;12.83;100.00
47897;BME280;39629;51.400;5.494;2023-10-19T04:37:07;98939.59;;;12.81;100.00
47897;BME280;39629;51.400;5.494;2023-10-19T04:42:15;98948.19;;;12.86;100.00
47897;BME280;39629;51.400;5.494;2023-10-19T04:47:17;98944.09;;;12.78;100.00
47897;BME280;39629;51.400;5.494;2023-10-19T04:52:21;98944.44;;;12.91;100.00
47897;BME280;39629;51.400;5.494;2023-10-19T04:57:25;98951.69;;;12.86;100.00
47897;BME280;39629;51.400;5.494;2023-10-19T05:02:27;98947.38;;;12.84;100.00
47897;BME280;39629;51.400;5.494;2023-10-19T05:07:30;98962.31;;;12.85;100.00
47897;BME280;39629;51.400;5.494;2023-10-19T05:12:36;98962.00;;;12.92;100.00
47897;BME280;39629;51.400;5.494;2023-10-19T05:17:40;98968.56;;;12.82;100.00
47897;BME280;39629;51.400;5.494;2023-10-19T05:22:43;98961.84;;;12.95;100.00
47897;BME280;39629;51.400;5.494;2023-10-19T05:27:47;98965.28;;;12.98;100.00
47897;BME280;39629;51.400;5.494;2023-10-19T05:32:51;98959.22;;;12.95;100.00
47897;BME280;39629;51.400;5.494;2023-10-19T05:37:53;98968.19;;;12.91;100.00
47897;BME280;39629;51.400;5.494;2023-10-19T05:42:58;98966.31;;;12.93;100.00
47897;BME280;39629;51.400;5.494;2023-10-19T05:48:01;98975.66;;;13.02;100.00
47897;BME280;39629;51.400;5.494;2023-10-19T05:53:04;98964.22;;;13.02;100.00
47897;BME280;39629;51.400;5.494;2023-10-19T05:58:08;98974.78;;;13.02;100.00
47897;BME280;39629;51.400;5.494;2023-10-19T06:03:10;98975.72;;;13.01;100.00
47897;BME280;39629;51.400;5.494;2023-10-19T06:08:13;98980.72;;;13.07;100.00
47897;BME280;39629;51.400;5.494;2023-10-19T06:13:16;98985.88;;;13.10;100.00
47897;BME280;39629;51.400;5.494;2023-10-19T06:18:19;98977.16;;;13.08;100.00
47897;BME280;39629;51.400;5.494;2023-10-19T06:23:21;98973.72;;;13.06;100.00
47897;BME280;39629;51.400;5.494;2023-10-19T06:28:25;98981.31;;;13.14;100.00
47897;BME280;39629;51.400;5.494;2023-10-19T06:33:27;98985.19;;;13.05;100.00
47897;BME280;39629;51.400;5.494;2023-10-19T06:38:30;98989.56;;;13.06;100.00
47897;BME280;39629;51.400;5.494;2023-10-19T06:43:35;98991.97;;;13.12;100.00
47897;BME280;39629;51.400;5.494;2023-10-19T06:48:38;98995.91;;;13.22;100.00
47897;BME280;39629;51.400;5.494;2023-10-19T06:53:40;98995.59;;;13.30;100.00
47897;BME280;39629;51.400;5.494;2023-10-19T06:58:44;98999.59;;;13.39;100.00
47897;BME280;39629;51.400;5.494;2023-10-19T07:03:47;99008.81;;;13.49;100.00
47897;BME280;39629;51.400;5.494;2023-10-19T07:08:50;99012.94;;;13.56;100.00
47897;BME280;39629;51.400;5.494;2023-10-19T07:13:54;99017.16;;;13.60;100.00
47897;BME280;39629;51.400;5.494;2023-10-19T07:18:56;99018.66;;;13.66;100.00
47897;BME280;39629;51.400;5.494;2023-10-19T07:24:00;99014.22;;;13.67;100.00
47897;BME280;39629;51.400;5.494;2023-10-19T07:29:07;99017.59;;;13.70;100.00
47897;BME280;39629;51.400;5.494;2023-10-19T07:34:10;99012.69;;;13.82;100.00
47897;BME280;39629;51.400;5.494;2023-10-19T07:39:16;99001.13;;;13.84;100.00
47897;BME280;39629;51.400;5.494;2023-10-19T07:44:21;99000.69;;;13.93;100.00
47897;BME280;39629;51.400;5.494;2023-10-19T07:49:23;98996.91;;;13.99;100.00
47897;BME280;39629;51.400;5.494;2023-10-19T07:54:26;99009.94;;;14.04;100.00
47897;BME280;39629;51.400;5.494;2023-10-19T07:59:30;98994.91;;;14.04;100.00
47897;BME280;39629;51.400;5.494;2023-10-19T08:04:32;98994.06;;;14.04;100.00
47897;BME280;39629;51.400;5.494;2023-10-19T08:09:34;99001.84;;;14.07;100.00
47897;BME280;39629;51.400;5.494;2023-10-19T08:14:38;98989.81;;;14.19;100.00
47897;BME280;39629;51.400;5.494;2023-10-19T08:19:40;98972.09;;;14.40;100.00
47897;BME280;39629;51.400;5.494;2023-10-19T08:24:42;98966.38;;;14.84;100.00
47897;BME280;39629;51.400;5.494;2023-10-19T08:29:48;98970.56;;;15.06;100.00
47897;BME280;39629;51.400;5.494;2023-10-19T08:34:50;98972.75;;;14.97;100.00
47897;BME280;39629;51.400;5.494;2023-10-19T08:39:52;98973.78;;;15.30;100.00
47897;BME280;39629;51.400;5.494;2023-10-19T08:44:56;98961.41;;;15.80;100.00
47897;BME280;39629;51.400;5.494;2023-10-19T08:50:00;98961.91;;;16.18;100.00
47897;BME280;39629;51.400;5.494;2023-10-19T08:55:03;98961.59;;;16.41;100.00
47897;BME280;39629;51.400;5.494;2023-10-19T09:00:08;98960.09;;;16.67;100.00
47897;BME280;39629;51.400;5.494;2023-10-19T09:05:11;98946.97;;;16.80;100.00
47897;BME280;39629;51.400;5.494;2023-10-19T09:10:20;98950.78;;;16.90;100.00
47897;BME280;39629;51.400;5.494;2023-10-19T09:15:28;98935.75;;;17.19;100.00
47897;BME280;39629;51.400;5.494;2023-10-19T09:20:33;98931.03;;;17.39;100.00
47897;BME280;39629;51.400;5.494;2023-10-19T09:25:35;98932.84;;;17.39;100.00
47897;BME280;39629;51.400;5.494;2023-10-19T09:30:43;98937.47;;;17.35;100.00
47897;BME280;39629;51.400;5.494;2023-10-19T09:35:46;98934.91;;;17.19;100.00
47897;BME280;39629;51.400;5.494;2023-10-19T09:40:49;98932.34;;;17.17;100.00
47897;BME280;39629;51.400;5.494;2023-10-19T09:45:57;98926.25;;;17.15;100.00
47897;BME280;39629;51.400;5.494;2023-10-19T09:51:02;98929.28;;;17.09;100.00
47897;BME280;39629;51.400;5.494;2023-10-19T09:56:08;98928.03;;;17.00;100.00
47897;BME280;39629;51.400;5.494;2023-10-19T10:01:16;98917.03;;;17.07;100.00
47897;BME280;39629;51.400;5.494;2023-10-19T10:06:28;98921.28;;;16.95;100.00
47897;BME280;39629;51.400;5.494;2023-10-19T10:11:31;98918.63;;;16.95;100.00
47897;BME280;39629;51.400;5.494;2023-10-19T10:16:37;98921.56;;;17.04;100.00
47897;BME280;39629;51.400;5.494;2023-10-19T10:22:06;98929.00;;;17.14;100.00
47897;BME280;39629;51.400;5.494;2023-10-19T10:27:16;98928.38;;;17.39;100.00
47897;BME280;39629;51.400;5.494;2023-10-19T10:32:46;98906.94;;;17.57;100.00
47897;BME280;39629;51.400;5.494;2023-10-19T10:37:53;98919.47;;;17.69;100.00
47897;BME280;39629;51.400;5.494;2023-10-19T10:43:05;98937.13;;;17.41;100.00
47897;BME280;39629;51.400;5.494;2023-10-19T10:48:13;98937.78;;;17.45;100.00
47897;BME280;39629;51.400;5.494;2023-10-19T10:53:17;98940.91;;;17.37;100.00
47897;BME280;39629;51.400;5.494;2023-10-19T10:58:19;98925.34;;;17.60;100.00
47897;BME280;39629;51.400;5.494;2023-10-19T11:03:24;98925.06;;;17.50;100.00
47897;BME280;39629;51.400;5.494;2023-10-19T11:08:31;98906.06;;;17.70;100.00
47897;BME280;39629;51.400;5.494;2023-10-19T11:13:34;98886.91;;;17.93;100.00
47897;BME280;39629;51.400;5.494;2023-10-19T11:18:40;98874.31;;;18.09;100.00
47897;BME280;39629;51.400;5.494;2023-10-19T11:23:47;98874.13;;;17.70;100.00
47897;BME280;39629;51.400;5.494;2023-10-19T11:28:57;98869.22;;;17.50;100.00
47897;BME280;39629;51.400;5.494;2023-10-19T11:34:03;98875.38;;;17.65;100.00
47897;BME280;39629;51.400;5.494;2023-10-19T11:39:06;98860.75;;;17.29;100.00
47897;BME280;39629;51.400;5.494;2023-10-19T11:44:12;98852.69;;;17.16;100.00
47897;BME280;39629;51.400;5.494;2023-10-19T11:49:16;98858.09;;;17.29;100.00
47897;BME280;39629;51.400;5.494;2023-10-19T11:54:21;98861.06;;;17.24;100.00
47897;BME280;39629;51.400;5.494;2023-10-19T11:59:24;98851.47;;;17.22;100.00
47897;BME280;39629;51.400;5.494;2023-10-19T12:04:28;98857.44;;;17.25;100.00
47897;BME280;39629;51.400;5.494;2023-10-19T12:09:33;98852.78;;;17.29;100.00
47897;BME280;39629;51.400;5.494;2023-10-19T12:14:36;98845.28;;;17.21;100.00
47897;BME280;39629;51.400;5.494;2023-10-19T12:19:41;98847.38;;;17.16;100.00
47897;BME280;39629;51.400;5.494;2023-10-19T12:24:43;98847.94;;;17.07;100.00
47897;BME280;39629;51.400;5.494;2023-10-19T12:29:46;98843.88;;;17.01;100.00
47897;BME280;39629;51.400;5.494;2023-10-19T12:34:50;98839.00;;;16.93;100.00
47897;BME280;39629;51.400;5.494;2023-10-19T12:39:57;98834.28;;;16.98;100.00
47897;BME280;39629;51.400;5.494;2023-10-19T12:44:59;98828.97;;;16.98;100.00
47897;BME280;39629;51.400;5.494;2023-10-19T12:50:04;98825.16;;;17.02;100.00
47897;BME280;39629;51.400;5.494;2023-10-19T12:55:08;98816.91;;;16.93;100.00
47897;BME280;39629;51.400;5.494;2023-10-19T13:00:13;98817.75;;;16.79;100.00
47897;BME280;39629;51.400;5.494;2023-10-19T13:05:36;98807.13;;;16.93;100.00
47897;BME280;39629;51.400;5.494;2023-10-19T13:10:42;98805.16;;;16.97;100.00
47897;BME280;39629;51.400;5.494;2023-10-19T13:15:46;98806.38;;;16.91;100.00
47897;BME280;39629;51.400;5.494;2023-10-19T13:20:50;98809.59;;;16.82;100.00
47897;BME280;39629;51.400;5.494;2023-10-19T13:25:55;98802.19;;;16.73;100.00
47897;BME280;39629;51.400;5.494;2023-10-19T13:31:09;98795.72;;;16.62;100.00
47897;BME280;39629;51.400;5.494;2023-10-19T13:36:16;98795.16;;;16.57;100.00
47897;BME280;39629;51.400;5.494;2023-10-19T13:41:18;98793.72;;;16.51;100.00
47897;BME280;39629;51.400;5.494;2023-10-19T13:46:21;98788.88;;;16.44;100.00
47897;BME280;39629;51.400;5.494;2023-10-19T13:51:26;98788.59;;;16.48;100.00
47897;BME280;39629;51.400;5.494;2023-10-19T13:56:29;98771.72;;;16.49;100.00
47897;BME280;39629;51.400;5.494;2023-10-19T14:01:32;98761.94;;;16.35;100.00
47897;BME280;39629;51.400;5.494;2023-10-19T14:06:59;98743.63;;;16.31;100.00
47897;BME280;39629;51.400;5.494;2023-10-19T14:12:01;98736.69;;;16.28;100.00
47897;BME280;39629;51.400;5.494;2023-10-19T14:17:05;98715.41;;;16.14;100.00
47897;BME280;39629;51.400;5.494;2023-10-19T14:22:09;98696.25;;;16.09;100.00
47897;BME280;39629;51.400;5.494;2023-10-19T14:27:11;98711.22;;;16.10;100.00
47897;BME280;39629;51.400;5.494;2023-10-19T14:32:14;98698.06;;;16.23;100.00
47897;BME280;39629;51.400;5.494;2023-10-19T14:37:18;98686.25;;;16.28;100.00
47897;BME280;39629;51.400;5.494;2023-10-19T14:42:20;98687.06;;;16.59;100.00
47897;BME280;39629;51.400;5.494;2023-10-19T14:47:22;98668.81;;;16.82;100.00
47897;BME280;39629;51.400;5.494;2023-10-19T14:52:25;98661.72;;;16.68;100.00
47897;BME280;39629;51.400;5.494;2023-10-19T14:57:28;98673.50;;;16.49;100.00
47897;BME280;39629;51.400;5.494;2023-10-19T15:02:30;98676.81;;;16.39;100.00
47897;BME280;39629;51.400;5.494;2023-10-19T15:07:34;98671.19;;;16.29;100.00
47897;BME280;39629;51.400;5.494;2023-10-19T15:12:40;98667.84;;;16.25;100.00
47897;BME280;39629;51.400;5.494;2023-10-19T15:17:42;98662.63;;;16.24;100.00
47897;BME280;39629;51.400;5.494;2023-10-19T15:22:47;98630.59;;;16.27;100.00
47897;BME280;39629;51.400;5.494;2023-10-19T15:27:49;98633.34;;;16.25;100.00
47897;BME280;39629;51.400;5.494;2023-10-19T15:32:52;98629.75;;;16.26;100.00
47897;BME280;39629;51.400;5.494;2023-10-19T15:37:56;98628.44;;;16.33;100.00
47897;BME280;39629;51.400;5.494;2023-10-19T15:42:59;98621.13;;;16.23;100.00
47897;BME280;39629;51.400;5.494;2023-10-19T15:48:01;98614.97;;;16.22;100.00
47897;BME280;39629;51.400;5.494;2023-10-19T15:53:04;98608.88;;;16.06;100.00
47897;BME280;39629;51.400;5.494;2023-10-19T15:58:07;98619.31;;;15.94;100.00
47897;BME280;39629;51.400;5.494;2023-10-19T16:03:11;98604.91;;;15.84;100.00
47897;BME280;39629;51.400;5.494;2023-10-19T16:08:15;98608.28;;;15.72;100.00
47897;BME280;39629;51.400;5.494;2023-10-19T16:13:17;98612.72;;;15.57;100.00
47897;BME280;39629;51.400;5.494;2023-10-19T16:18:19;98624.44;;;15.53;100.00
47897;BME280;39629;51.400;5.494;2023-10-19T16:23:24;98625.47;;;15.50;100.00
47897;BME280;39629;51.400;5.494;2023-10-19T16:28:26;98629.06;;;15.49;100.00
47897;BME280;39629;51.400;5.494;2023-10-19T16:33:28;98629.22;;;15.46;100.00
47897;BME280;39629;51.400;5.494;2023-10-19T16:38:32;98638.69;;;15.36;100.00
47897;BME280;39629;51.400;5.494;2023-10-19T16:43:34;98630.13;;;15.30;100.00
47897;BME280;39629;51.400;5.494;2023-10-19T16:48:36;98645.34;;;15.27;100.00
47897;BME280;39629;51.400;5.494;2023-10-19T16:53:40;98634.09;;;15.23;100.00
47897;BME280;39629;51.400;5.494;2023-10-19T16:58:43;98628.00;;;15.21;100.00
47897;BME280;39629;51.400;5.494;2023-10-19T17:03:45;98630.09;;;15.16;100.00
47897;BME280;39629;51.400;5.494;2023-10-19T17:08:49;98626.75;;;15.12;100.00
47897;BME280;39629;51.400;5.494;2023-10-19T17:13:51;98598.97;;;15.04;100.00
47897;BME280;39629;51.400;5.494;2023-10-19T17:18:58;98595.56;;;14.86;100.00
47897;BME280;39629;51.400;5.494;2023-10-19T17:24:01;98584.56;;;14.77;100.00
47897;BME280;39629;51.400;5.494;2023-10-19T17:29:04;98571.81;;;14.68;100.00
47897;BME280;39629;51.400;5.494;2023-10-19T17:34:07;98579.09;;;14.64;100.00
47897;BME280;39629;51.400;5.494;2023-10-19T17:39:11;98581.13;;;14.59;100.00
47897;BME280;39629;51.400;5.494;2023-10-19T17:44:14;98587.72;;;14.52;100.00
47897;BME280;39629;51.400;5.494;2023-10-19T17:49:16;98593.94;;;14.51;100.00
47897;BME280;39629;51.400;5.494;2023-10-19T17:54:20;98587.19;;;14.45;100.00
47897;BME280;39629;51.400;5.494;2023-10-19T17:59:22;98589.41;;;14.37;100.00
47897;BME280;39629;51.400;5.494;2023-10-19T18:04:24;98573.78;;;14.33;100.00
47897;BME280;39629;51.400;5.494;2023-10-19T18:09:28;98581.28;;;14.24;100.00
47897;BME280;39629;51.400;5.494;2023-10-19T18:14:30;98570.63;;;14.26;100.00
47897;BME280;39629;51.400;5.494;2023-10-19T18:19:33;98562.81;;;14.23;100.00
47897;BME280;39629;51.400;5.494;2023-10-19T18:24:37;98571.59;;;14.07;100.00
47897;BME280;39629;51.400;5.494;2023-10-19T18:29:39;98569.97;;;14.05;100.00
47897;BME280;39629;51.400;5.494;2023-10-19T18:34:41;98553.16;;;14.06;100.00
47897;BME280;39629;51.400;5.494;2023-10-19T18:39:45;98544.88;;;13.96;100.00
47897;BME280;39629;51.400;5.494;2023-10-19T18:44:47;98543.50;;;13.89;100.00
47897;BME280;39629;51.400;5.494;2023-10-19T18:49:53;98547.22;;;13.85;100.00
47897;BME280;39629;51.400;5.494;2023-10-19T18:55:07;98527.72;;;13.70;100.00
47897;BME280;39629;51.400;5.494;2023-10-19T19:00:10;98524.84;;;13.74;100.00
47897;BME280;39629;51.400;5.494;2023-10-19T19:05:12;98527.19;;;13.63;100.00
47897;BME280;39629;51.400;5.494;2023-10-19T19:10:18;98503.34;;;13.65;100.00
47897;BME280;39629;51.400;5.494;2023-10-19T19:15:21;98494.47;;;13.66;100.00
47897;BME280;39629;51.400;5.494;2023-10-19T19:20:23;98500.09;;;13.59;100.00
47897;BME280;39629;51.400;5.494;2023-10-19T19:25:26;98497.28;;;13.62;100.00
47897;BME280;39629;51.400;5.494;2023-10-19T19:30:29;98500.72;;;13.65;100.00
47897;BME280;39629;51.400;5.494;2023-10-19T19:35:31;98496.34;;;13.63;100.00
47897;BME280;39629;51.400;5.494;2023-10-19T19:40:35;98488.06;;;13.54;100.00
47897;BME280;39629;51.400;5.494;2023-10-19T19:45:37;98485.94;;;13.60;100.00
47897;BME280;39629;51.400;5.494;2023-10-19T19:50:43;98482.50;;;13.58;100.00
47897;BME280;39629;51.400;5.494;2023-10-19T19:55:47;98491.38;;;13.57;100.00
47897;BME280;39629;51.400;5.494;2023-10-19T20:00:51;98521.31;;;13.58;100.00
47897;BME280;39629;51.400;5.494;2023-10-19T20:05:56;98516.56;;;13.65;100.00
47897;BME280;39629;51.400;5.494;2023-10-19T20:11:01;98518.25;;;13.66;100.00
47897;BME280;39629;51.400;5.494;2023-10-19T20:16:05;98522.34;;;13.71;100.00
47897;BME280;39629;51.400;5.494;2023-10-19T20:21:08;98502.16;;;13.70;100.00
47897;BME280;39629;51.400;5.494;2023-10-19T20:26:12;98488.78;;;13.73;100.00
47897;BME280;39629;51.400;5.494;2023-10-19T20:31:16;98474.69;;;13.73;100.00
47897;BME280;39629;51.400;5.494;2023-10-19T20:36:19;98457.06;;;13.73;100.00
47897;BME280;39629;51.400;5.494;2023-10-19T20:41:23;98464.81;;;13.76;100.00
47897;BME280;39629;51.400;5.494;2023-10-19T20:46:25;98451.69;;;13.75;100.00
47897;BME280;39629;51.400;5.494;2023-10-19T20:51:27;98442.97;;;13.73;100.00
47897;BME280;39629;51.400;5.494;2023-10-19T20:56:31;98440.19;;;13.76;100.00
47897;BME280;39629;51.400;5.494;2023-10-19T21:01:33;98426.44;;;13.69;100.00
47897;BME280;39629;51.400;5.494;2023-10-19T21:06:35;98400.03;;;13.69;100.00
47897;BME280;39629;51.400;5.494;2023-10-19T21:11:39;98399.75;;;13.74;100.00
47897;BME280;39629;51.400;5.494;2023-10-19T21:16:42;98387.06;;;13.65;100.00
47897;BME280;39629;51.400;5.494;2023-10-19T21:21:44;98396.75;;;13.64;100.00
47897;BME280;39629;51.400;5.494;2023-10-19T21:26:48;98386.19;;;13.64;100.00
47897;BME280;39629;51.400;5.494;2023-10-19T21:31:50;98373.75;;;13.66;100.00
47897;BME280;39629;51.400;5.494;2023-10-19T21:36:52;98382.09;;;13.58;100.00
47897;BME280;39629;51.400;5.494;2023-10-19T21:41:56;98379.88;;;13.67;100.00
47897;BME280;39629;51.400;5.494;2023-10-19T21:46:59;98370.16;;;13.67;100.00
47897;BME280;39629;51.400;5.494;2023-10-19T21:52:01;98359.78;;;13.80;100.00
47897;BME280;39629;51.400;5.494;2023-10-19T21:57:05;98357.28;;;13.77;100.00
47897;BME280;39629;51.400;5.494;2023-10-19T22:02:07;98338.13;;;13.73;100.00
47897;BME280;39629;51.400;5.494;2023-10-19T22:07:10;98333.69;;;13.74;100.00
47897;BME280;39629;51.400;5.494;2023-10-19T22:12:15;98323.38;;;13.69;100.00
47897;BME280;39629;51.400;5.494;2023-10-19T22:17:18;98321.84;;;13.65;100.00
47897;BME280;39629;51.400;5.494;2023-10-19T22:22:20;98341.25;;;13.64;100.00
47897;BME280;39629;51.400;5.494;2023-10-19T22:27:24;98332.50;;;13.63;100.00
47897;BME280;39629;51.400;5.494;2023-10-19T22:32:27;98336.06;;;13.62;100.00
47897;BME280;39629;51.400;5.494;2023-10-19T22:37:29;98336.06;;;13.62;100.00
47897;BME280;39629;51.400;5.494;2023-10-19T22:42:33;98333.44;;;13.62;100.00
47897;BME280;39629;51.400;5.494;2023-10-19T22:47:35;98321.94;;;13.63;100.00
47897;BME280;39629;51.400;5.494;2023-10-19T22:52:38;98318.25;;;13.66;100.00
47897;BME280;39629;51.400;5.494;2023-10-19T22:57:42;98317.56;;;13.62;100.00
47897;BME280;39629;51.400;5.494;2023-10-19T23:02:45;98322.09;;;13.60;100.00
47897;BME280;39629;51.400;5.494;2023-10-19T23:07:48;98318.59;;;13.60;100.00
47897;BME280;39629;51.400;5.494;2023-10-19T23:12:55;98329.16;;;13.60;100.00
47897;BME280;39629;51.400;5.494;2023-10-19T23:17:58;98321.16;;;13.61;100.00
47897;BME280;39629;51.400;5.494;2023-10-19T23:23:03;98321.22;;;13.60;100.00
47897;BME280;39629;51.400;5.494;2023-10-19T23:28:07;98314.22;;;13.59;100.00
47897;BME280;39629;51.400;5.494;2023-10-19T23:33:13;98289.69;;;13.57;100.00
47897;BME280;39629;51.400;5.494;2023-10-19T23:38:16;98279.22;;;13.55;100.00
47897;BME280;39629;51.400;5.494;2023-10-19T23:43:20;98270.50;;;13.53;100.00
47897;BME280;39629;51.400;5.494;2023-10-19T23:48:22;98280.16;;;13.54;100.00
47897;BME280;39629;51.400;5.494;2023-10-19T23:53:25;98277.59;;;13.53;100.00
47897;BME280;39629;51.400;5.494;2023-10-19T23:58:29;98272.13;;;13.56;100.00
